Time;durP1;ratioP1;P1;durP2;ratioP2;P2;SDS_P1;SDS_P2;PMS_P1;PMS_P2;Temp;Humidity;BMP_temperature;BMP_pressure;BME280_temperature;BME280_humidity;BME280_pressure;Samples;Min_cycle;Max_cycle;Signal;HPM_P1;HPM_P2
2021/07/16 00:00:43;;;;;;;3.38;1.88;;;18.80;99.90;;;;;;5034265;28;20168;-65
2021/07/16 00:03:08;;;;;;;4.63;2.10;;;18.70;99.90;;;;;;5035193;28;20029;-65
2021/07/16 00:05:34;;;;;;;2.35;1.73;;;18.70;99.90;;;;;;5035240;28;20498;-65
2021/07/16 00:08:00;;;;;;;4.38;2.22;;;18.80;99.90;;;;;;5034445;28;20044;-66
2021/07/16 00:10:25;;;;;;;1.80;1.70;;;18.70;99.90;;;;;;5035008;28;20029;-64
2021/07/16 00:12:51;;;;;;;3.78;1.95;;;18.70;99.90;;;;;;5034157;28;20025;-66
2021/07/16 00:15:19;;;;;;;2.90;1.92;;;18.70;99.90;;;;;;5035136;28;20041;-65
2021/07/16 00:17:45;;;;;;;2.55;1.80;;;18.70;99.90;;;;;;5016189;28;20029;-66
2021/07/16 00:20:12;;;;;;;4.00;1.75;;;18.70;99.90;;;;;;5016601;28;20029;-66
2021/07/16 00:22:38;;;;;;;3.28;1.98;;;18.70;99.90;;;;;;5034155;28;20100;-65
2021/07/16 00:25:06;;;;;;;6.60;2.20;;;18.70;99.90;;;;;;5033987;28;20032;-65
2021/07/16 00:27:32;;;;;;;3.47;2.00;;;18.70;99.90;;;;;;5034219;28;20033;-65
2021/07/16 00:29:57;;;;;;;3.90;2.47;;;18.60;99.90;;;;;;5016200;28;20078;-65
2021/07/16 00:32:23;;;;;;;4.78;2.00;;;18.60;99.90;;;;;;5034617;28;20434;-66
2021/07/16 00:34:49;;;;;;;2.47;2.03;;;18.50;99.90;;;;;;5016011;28;20029;-65
2021/07/16 00:37:14;;;;;;;6.28;2.22;;;18.50;99.90;;;;;;5034411;28;20064;-65
2021/07/16 00:39:41;;;;;;;4.32;1.90;;;18.60;99.90;;;;;;5034383;28;20352;-66
2021/07/16 00:42:06;;;;;;;3.95;2.05;;;18.60;99.90;;;;;;5016351;28;20462;-66
2021/07/16 00:44:34;;;;;;;4.57;2.60;;;18.50;99.90;;;;;;5034517;28;20105;-65
2021/07/16 00:47:00;;;;;;;4.32;2.10;;;18.50;99.90;;;;;;5035370;28;20504;-65
2021/07/16 00:49:26;;;;;;;4.32;2.00;;;18.50;99.90;;;;;;5053806;28;20077;-64
2021/07/16 00:51:52;;;;;;;3.95;2.10;;;18.60;99.90;;;;;;5035561;28;20074;-66
2021/07/16 00:54:18;;;;;;;3.10;1.73;;;18.60;99.90;;;;;;5036350;28;20117;-66
2021/07/16 00:56:44;;;;;;;4.03;1.75;;;18.70;99.90;;;;;;5035480;28;20021;-65
2021/07/16 00:59:14;;;;;;;2.63;2.05;;;18.70;99.90;;;;;;5053870;28;20492;-66
2021/07/16 01:01:41;;;;;;;4.10;2.33;;;18.70;99.90;;;;;;5053247;28;20466;-66
2021/07/16 01:04:07;;;;;;;2.22;2.00;;;18.80;99.90;;;;;;5035143;28;20270;-64
2021/07/16 01:06:32;;;;;;;5.18;2.08;;;18.80;99.90;;;;;;5035900;28;20025;-65
2021/07/16 01:08:58;;;;;;;3.67;2.10;;;18.70;99.90;;;;;;5035171;28;20386;-66
2021/07/16 01:11:24;;;;;;;2.60;1.85;;;18.70;99.90;;;;;;5053762;28;20374;-64
2021/07/16 01:13:49;;;;;;;2.40;2.17;;;18.60;99.90;;;;;;5035053;28;20040;-65
2021/07/16 01:16:15;;;;;;;4.80;2.80;;;18.70;99.90;;;;;;5053624;28;20452;-66
2021/07/16 01:18:41;;;;;;;4.82;2.58;;;18.70;99.90;;;;;;5035684;28;20033;-65
2021/07/16 01:21:07;;;;;;;3.55;2.47;;;18.70;99.90;;;;;;5053144;28;20331;-65
2021/07/16 01:23:33;;;;;;;4.22;2.83;;;18.60;99.90;;;;;;5053117;28;20025;-65
2021/07/16 01:26:00;;;;;;;6.50;2.75;;;18.50;99.90;;;;;;5034706;28;20032;-66
2021/07/16 01:28:25;;;;;;;5.93;2.88;;;18.60;99.90;;;;;;5053168;28;20033;-65
2021/07/16 01:30:53;;;;;;;4.47;3.28;;;18.60;99.90;;;;;;5034910;28;20033;-66
2021/07/16 01:33:21;;;;;;;5.35;3.42;;;18.70;99.90;;;;;;5035098;28;20116;-65
2021/07/16 01:35:47;;;;;;;6.93;3.17;;;18.70;99.90;;;;;;5034615;28;20172;-66
2021/07/16 01:38:13;;;;;;;5.57;3.17;;;18.70;99.90;;;;;;5053308;28;20120;-64
2021/07/16 01:40:39;;;;;;;4.07;2.80;;;18.60;99.90;;;;;;5053200;28;20060;-65
2021/07/16 01:43:10;;;;;;;4.80;3.15;;;18.60;99.90;;;;;;5034553;28;20171;-64
2021/07/16 01:45:38;;;;;;;8.02;3.92;;;18.60;99.90;;;;;;5044669;28;20045;-65
2021/07/16 01:48:07;;;;;;;4.05;3.55;;;18.60;99.90;;;;;;5032678;28;20103;-66
2021/07/16 01:50:34;;;;;;;8.30;3.92;;;18.40;99.90;;;;;;5032869;28;20026;-65
2021/07/16 01:53:00;;;;;;;5.47;4.15;;;18.40;99.90;;;;;;5014886;28;20045;-66
2021/07/16 01:55:29;;;;;;;6.20;3.67;;;18.20;99.90;;;;;;5015360;28;20036;-65
2021/07/16 01:57:57;;;;;;;4.53;3.15;;;18.30;99.90;;;;;;5014781;28;20068;-65
2021/07/16 02:00:26;;;;;;;4.57;2.85;;;18.20;99.90;;;;;;5033325;28;20037;-66
2021/07/16 02:02:54;;;;;;;6.55;3.30;;;18.30;99.90;;;;;;5032347;28;20112;-66
2021/07/16 02:05:20;;;;;;;7.80;3.95;;;18.30;99.90;;;;;;5032798;28;20037;-70
2021/07/16 02:07:48;;;;;;;6.53;4.15;;;18.40;99.90;;;;;;5033148;28;20037;-72
2021/07/16 02:10:14;;;;;;;5.68;3.72;;;18.30;99.90;;;;;;5015752;28;20065;-66
2021/07/16 02:12:40;;;;;;;4.60;3.53;;;18.30;99.90;;;;;;5033324;28;20079;-65
2021/07/16 02:15:15;;;;;;;5.88;3.60;;;18.40;99.90;;;;;;5033565;28;20060;-65
2021/07/16 02:17:41;;;;;;;5.93;4.22;;;18.40;99.90;;;;;;5016159;28;20507;-65
2021/07/16 02:20:20;;;;;;;6.07;4.47;;;18.40;99.90;;;;;;5032695;28;20528;-67
2021/07/16 02:22:46;;;;;;;5.72;3.70;;;18.30;99.90;;;;;;5015605;28;20032;-65
2021/07/16 02:25:14;;;;;;;11.07;4.15;;;18.20;99.90;;;;;;5033988;28;20025;-66
2021/07/16 02:27:39;;;;;;;4.32;3.00;;;18.20;99.90;;;;;;5015528;28;20064;-64
2021/07/16 02:30:07;;;;;;;4.30;3.78;;;18.20;99.90;;;;;;5031794;28;20061;-65
2021/07/16 02:32:33;;;;;;;7.88;3.72;;;18.20;99.90;;;;;;5014607;28;20034;-65
2021/07/16 02:34:58;;;;;;;3.80;3.40;;;18.20;99.90;;;;;;5013814;28;20476;-65
2021/07/16 02:37:24;;;;;;;3.58;3.20;;;18.20;99.90;;;;;;5032522;28;20100;-66
2021/07/16 02:39:50;;;;;;;4.07;3.67;;;18.20;99.90;;;;;;5013747;28;20077;-66
2021/07/16 02:42:15;;;;;;;7.35;3.35;;;18.30;99.90;;;;;;5014620;28;20041;-66
2021/07/16 02:44:41;;;;;;;4.47;3.40;;;18.30;99.90;;;;;;5015092;28;20060;-67
2021/07/16 02:47:06;;;;;;;5.75;3.63;;;18.30;99.90;;;;;;5033712;28;20020;-65
2021/07/16 02:49:32;;;;;;;4.70;3.28;;;18.30;99.90;;;;;;5051725;28;20029;-66
2021/07/16 02:51:57;;;;;;;5.32;3.22;;;18.40;99.90;;;;;;5051415;28;20033;-65
2021/07/16 02:54:23;;;;;;;5.07;3.38;;;18.40;99.90;;;;;;5051875;28;20103;-65
2021/07/16 02:56:49;;;;;;;5.85;3.83;;;18.30;99.90;;;;;;5051479;28;20033;-71
2021/07/16 02:59:15;;;;;;;5.45;3.17;;;18.20;99.90;;;;;;5051407;28;20135;-65
2021/07/16 03:01:54;;;;;;;5.18;3.20;;;18.20;99.90;;;;;;5050008;28;20056;-66
2021/07/16 03:04:20;;;;;;;3.42;2.72;;;18.30;99.90;;;;;;5041858;28;20021;-65
2021/07/16 03:06:45;;;;;;;8.65;3.03;;;18.20;99.90;;;;;;5034444;28;20182;-65
2021/07/16 03:09:11;;;;;;;3.65;3.28;;;18.20;99.90;;;;;;5052099;28;20043;-66
2021/07/16 03:11:36;;;;;;;6.07;2.92;;;18.10;99.90;;;;;;5033587;28;20021;-66
2021/07/16 03:14:04;;;;;;;3.83;2.92;;;18.00;99.90;;;;;;5033266;28;20462;-66
2021/07/16 03:16:30;;;;;;;3.67;2.42;;;18.10;99.90;;;;;;5033640;28;20053;-65
2021/07/16 03:18:57;;;;;;;4.38;2.67;;;18.10;99.90;;;;;;5050916;28;20536;-65
2021/07/16 03:21:23;;;;;;;8.48;3.38;;;18.10;99.90;;;;;;5051599;28;20036;-66
2021/07/16 03:23:49;;;;;;;7.18;2.97;;;18.10;99.90;;;;;;5032784;28;20025;-65
2021/07/16 03:26:14;;;;;;;3.75;2.38;;;18.20;99.90;;;;;;5051059;28;20122;-66
2021/07/16 03:28:40;;;;;;;3.65;2.70;;;18.20;99.90;;;;;;5033662;28;20386;-66
2021/07/16 03:31:05;;;;;;;3.00;2.67;;;18.20;99.90;;;;;;5050689;28;20036;-66
2021/07/16 03:33:31;;;;;;;7.57;2.97;;;18.10;99.90;;;;;;5033492;28;20454;-66
2021/07/16 03:35:57;;;;;;;4.10;2.58;;;18.10;99.90;;;;;;5050765;28;20454;-66
2021/07/16 03:38:22;;;;;;;4.68;2.67;;;18.10;99.90;;;;;;5051223;28;20045;-66
2021/07/16 03:40:53;;;;;;;4.55;3.08;;;18.20;99.90;;;;;;5050881;28;20029;-65
2021/07/16 03:43:19;;;;;;;5.18;3.28;;;18.20;99.90;;;;;;5051211;28;20021;-66
2021/07/16 03:45:45;;;;;;;3.17;2.75;;;18.20;99.90;;;;;;5050859;28;20049;-66
2021/07/16 03:48:10;;;;;;;3.47;2.58;;;18.10;99.90;;;;;;5032552;28;20085;-67
2021/07/16 03:50:36;;;;;;;5.82;2.67;;;18.20;99.90;;;;;;5033202;28;20040;-66
2021/07/16 03:53:03;;;;;;;5.38;2.63;;;18.20;99.90;;;;;;5032609;28;20039;-65
2021/07/16 03:55:29;;;;;;;5.93;2.92;;;18.20;99.90;;;;;;5050771;28;20025;-65
2021/07/16 03:57:55;;;;;;;7.85;3.25;;;18.20;99.90;;;;;;5032435;28;20056;-65
2021/07/16 04:00:28;;;;;;;4.20;2.35;;;18.20;99.90;;;;;;5032899;28;20033;-66
2021/07/16 04:02:55;;;;;;;3.08;2.58;;;18.20;99.90;;;;;;5050528;28;20112;-66
2021/07/16 04:05:20;;;;;;;7.20;3.25;;;18.30;99.90;;;;;;5033047;28;20025;-67
2021/07/16 04:07:47;;;;;;;5.90;3.25;;;18.30;99.90;;;;;;5051055;28;20380;-65
2021/07/16 04:10:19;;;;;;;5.90;3.17;;;18.30;99.90;;;;;;5050386;28;20078;-65
2021/07/16 04:12:56;;;;;;;4.00;2.80;;;18.20;99.90;;;;;;5051075;28;20048;-65
2021/07/16 04:15:25;;;;;;;4.80;3.28;;;18.20;99.90;;;;;;5051136;28;20032;-66
2021/07/16 04:17:51;;;;;;;5.13;3.17;;;18.30;99.90;;;;;;5050909;28;20320;-65
2021/07/16 04:20:17;;;;;;;9.40;3.30;;;18.40;99.90;;;;;;5050207;28;20067;-64
2021/07/16 04:22:44;;;;;;;4.43;2.97;;;18.40;99.90;;;;;;5050828;28;20426;-66
2021/07/16 04:25:14;;;;;;;6.78;3.63;;;18.50;99.90;;;;;;5049992;28;20029;-65
2021/07/16 04:27:41;;;;;;;4.00;2.88;;;18.50;99.90;;;;;;5050831;28;20025;-66
2021/07/16 04:30:07;;;;;;;5.50;3.55;;;18.50;99.90;;;;;;5050085;28;20049;-67
2021/07/16 04:32:33;;;;;;;7.05;3.83;;;18.60;99.90;;;;;;5050935;28;20036;-66
2021/07/16 04:34:59;;;;;;;6.50;3.30;;;18.60;99.90;;;;;;5032076;28;20021;-65
2021/07/16 04:37:25;;;;;;;7.47;3.38;;;18.50;99.90;;;;;;5053415;28;20227;-65
2021/07/16 04:39:50;;;;;;;4.85;3.17;;;18.50;99.90;;;;;;5053920;28;20045;-65
2021/07/16 04:42:16;;;;;;;7.00;4.28;;;18.60;99.90;;;;;;5053905;28;20086;-66
2021/07/16 04:44:41;;;;;;;5.53;3.20;;;18.60;99.90;;;;;;5053791;28;20335;-65
2021/07/16 04:47:07;;;;;;;9.13;3.00;;;18.60;99.90;;;;;;5053926;28;20060;-65
2021/07/16 04:49:33;;;;;;;9.98;3.63;;;18.60;99.90;;;;;;5036551;28;20416;-65
2021/07/16 04:52:00;;;;;;;8.55;3.67;;;18.70;99.90;;;;;;5053353;28;20025;-67
2021/07/16 04:54:26;;;;;;;6.53;3.75;;;18.70;99.90;;;;;;5054157;28;20033;-65
2021/07/16 04:56:52;;;;;;;8.05;3.88;;;18.50;99.90;;;;;;5035717;28;20025;-65
2021/07/16 04:59:17;;;;;;;5.68;3.40;;;18.50;99.90;;;;;;5033883;28;20033;-66
2021/07/16 05:01:43;;;;;;;6.28;3.00;;;18.50;99.90;;;;;;5035651;28;20021;-65
2021/07/16 05:04:09;;;;;;;5.15;3.40;;;18.50;99.90;;;;;;5034872;28;20517;-66
2021/07/16 05:06:35;;;;;;;9.88;3.85;;;18.60;99.90;;;;;;5035259;28;20040;-66
2021/07/16 05:09:01;;;;;;;6.63;3.20;;;18.70;99.90;;;;;;5035345;28;20414;-66
2021/07/16 05:11:27;;;;;;;6.47;3.75;;;18.70;99.90;;;;;;5035546;28;20041;-67
2021/07/16 05:13:53;;;;;;;5.65;4.35;;;18.80;99.90;;;;;;5053566;28;20507;-67
2021/07/16 05:16:19;;;;;;;11.50;4.20;;;18.80;99.90;;;;;;5035048;28;20025;-65
2021/07/16 05:18:44;;;;;;;8.68;4.35;;;18.80;99.90;;;;;;5053405;28;20078;-66
2021/07/16 05:21:12;;;;;;;9.05;4.75;;;18.80;99.90;;;;;;5034670;28;20100;-66
2021/07/16 05:23:38;;;;;;;10.23;4.60;;;18.80;99.90;;;;;;5053054;28;20508;-66
2021/07/16 05:26:04;;;;;;;5.45;3.60;;;18.90;99.90;;;;;;5052835;28;20021;-66
2021/07/16 05:28:30;;;;;;;7.53;4.40;;;19.00;99.90;;;;;;5053194;28;20078;-66
2021/07/16 05:30:56;;;;;;;12.95;4.57;;;19.10;99.90;;;;;;5035136;28;20454;-66
2021/07/16 05:33:22;;;;;;;6.03;4.40;;;19.10;99.90;;;;;;5034561;28;20017;-66
2021/07/16 05:35:48;;;;;;;8.77;3.65;;;19.00;99.90;;;;;;5034961;28;20025;-66
2021/07/16 05:38:14;;;;;;;7.78;3.63;;;18.90;99.90;;;;;;5052239;28;20104;-66
2021/07/16 05:40:40;;;;;;;6.65;3.88;;;18.80;99.90;;;;;;5034853;28;20029;-66
2021/07/16 05:43:07;;;;;;;8.07;4.20;;;18.80;99.90;;;;;;5033754;28;20025;-66
2021/07/16 05:45:35;;;;;;;5.85;4.03;;;19.00;99.90;;;;;;5034608;28;20072;-66
2021/07/16 05:48:02;;;;;;;12.27;3.95;;;19.10;99.90;;;;;;5033739;28;20115;-68
2021/07/16 05:50:28;;;;;;;8.93;4.13;;;18.90;99.90;;;;;;5034618;28;20025;-68
2021/07/16 05:52:55;;;;;;;7.88;4.63;;;18.90;99.90;;;;;;5052506;28;20029;-67
2021/07/16 05:55:21;;;;;;;11.57;4.22;;;18.70;99.90;;;;;;5053464;28;20037;-68
2021/07/16 05:57:47;;;;;;;7.45;4.60;;;18.90;99.90;;;;;;5034702;28;20025;-68
2021/07/16 06:00:14;;;;;;;6.82;4.80;;;19.00;99.90;;;;;;5052146;28;20025;-68
2021/07/16 06:02:40;;;;;;;8.90;4.43;;;18.90;99.90;;;;;;5033913;28;20532;-67
2021/07/16 06:05:06;;;;;;;6.75;4.63;;;18.80;99.90;;;;;;5051452;28;20111;-66
2021/07/16 06:07:32;;;;;;;6.75;4.03;;;18.90;99.90;;;;;;5033904;28;20029;-66
2021/07/16 06:09:58;;;;;;;12.38;4.55;;;19.00;99.90;;;;;;5034688;28;20048;-66
2021/07/16 06:12:23;;;;;;;6.72;4.93;;;19.00;99.90;;;;;;5051492;28;20029;-68
2021/07/16 06:14:55;;;;;;;7.00;4.15;;;19.20;99.90;;;;;;5052542;28;20106;-66
2021/07/16 06:17:21;;;;;;;7.10;4.15;;;19.30;99.90;;;;;;5051628;28;20021;-68
2021/07/16 06:19:47;;;;;;;7.72;4.40;;;19.50;99.90;;;;;;5034117;28;20481;-65
2021/07/16 06:22:12;;;;;;;10.02;5.60;;;19.60;99.90;;;;;;5033910;28;20068;-68
2021/07/16 06:24:38;;;;;;;9.52;4.70;;;19.70;99.90;;;;;;5052578;28;20112;-67
2021/07/16 06:27:04;;;;;;;7.43;4.38;;;19.70;99.90;;;;;;5051215;28;20124;-66
2021/07/16 06:29:30;;;;;;;14.18;5.03;;;19.70;99.90;;;;;;5052081;28;20450;-67
2021/07/16 06:31:56;;;;;;;7.55;4.30;;;19.70;99.90;;;;;;5051491;28;20505;-66
2021/07/16 06:34:21;;;;;;;13.23;4.45;;;19.70;99.90;;;;;;5051267;28;20206;-66
2021/07/16 06:36:47;;;;;;;8.52;4.25;;;19.80;99.90;;;;;;5033776;28;20410;-67
2021/07/16 06:39:13;;;;;;;7.57;4.28;;;19.80;99.90;;;;;;5051163;28;20137;-67
2021/07/16 06:41:38;;;;;;;12.48;5.20;;;19.80;99.90;;;;;;5051319;28;20056;-67
2021/07/16 06:44:04;;;;;;;10.68;4.97;;;19.80;99.90;;;;;;5050931;28;20036;-67
2021/07/16 06:46:30;;;;;;;31.42;5.38;;;19.70;99.90;;;;;;5050988;28;20057;-67
2021/07/16 06:48:55;;;;;;;14.30;5.25;;;19.60;99.90;;;;;;5032908;28;20398;-67
2021/07/16 06:51:21;;;;;;;11.75;4.82;;;19.70;99.90;;;;;;5050765;28;20036;-65
2021/07/16 06:53:47;;;;;;;16.20;4.68;;;19.70;99.90;;;;;;5018360;28;20108;-66
2021/07/16 06:56:13;;;;;;;8.13;5.60;;;19.70;99.90;;;;;;5012845;28;20164;-67
2021/07/16 06:58:38;;;;;;;6.25;1.88;;;20.00;99.90;;;;;;5030487;28;20114;-66
2021/07/16 07:01:04;;;;;;;5.65;4.30;;;20.50;99.90;;;;;;5030909;28;20029;-75
2021/07/16 07:03:30;;;;;;;4.70;3.70;;;20.70;99.90;;;;;;5013121;28;20029;-66
2021/07/16 07:05:56;;;;;;;6.05;3.05;;;20.90;99.90;;;;;;5011754;28;20033;-65
2021/07/16 07:08:22;;;;;;;7.13;3.33;;;21.00;99.90;;;;;;5030996;28;20052;-65
2021/07/16 07:10:48;;;;;;;6.57;4.50;;;21.00;99.90;;;;;;5030882;28;20033;-67
2021/07/16 07:13:14;;;;;;;15.20;3.17;;;21.00;99.90;;;;;;5012681;28;20029;-66
2021/07/16 07:15:39;;;;;;;11.13;3.13;;;21.00;99.90;;;;;;5013281;28;20443;-65
2021/07/16 07:18:06;;;;;;;9.40;3.55;;;21.00;99.90;;;;;;5030371;28;20463;-66
2021/07/16 07:20:33;;;;;;;7.28;4.53;;;21.10;99.90;;;;;;5012867;28;20391;-66
2021/07/16 07:22:59;;;;;;;5.15;3.70;;;21.00;99.90;;;;;;5013235;28;20084;-66
2021/07/16 07:25:25;;;;;;;6.72;2.60;;;21.00;99.90;;;;;;5012229;28;20083;-68
2021/07/16 07:27:51;;;;;;;10.48;4.35;;;20.90;99.90;;;;;;5030728;28;20037;-67
2021/07/16 07:30:17;;;;;;;5.70;3.08;;;20.90;99.90;;;;;;5030358;28;20030;-68
2021/07/16 07:32:43;;;;;;;4.63;3.15;;;20.90;99.90;;;;;;5030714;28;20112;-65
2021/07/16 07:35:09;;;;;;;6.40;4.28;;;20.80;99.90;;;;;;5018402;28;20069;-67
2021/07/16 07:37:35;;;;;;;7.43;3.58;;;20.80;99.90;;;;;;4993216;28;20044;-66
2021/07/16 07:40:03;;;;;;;6.10;2.47;;;20.80;99.90;;;;;;4992885;28;20034;-66
2021/07/16 07:42:29;;;;;;;3.85;2.65;;;20.90;99.90;;;;;;5010488;28;20053;-65
2021/07/16 07:44:54;;;;;;;3.97;2.92;;;21.00;99.90;;;;;;4996028;28;20057;-66
2021/07/16 07:47:21;;;;;;;11.65;4.70;;;21.20;99.90;;;;;;5013023;28;20169;-67
2021/07/16 07:49:48;;;;;;;6.65;3.63;;;21.20;99.90;;;;;;5030616;28;20391;-65
2021/07/16 07:52:14;;;;;;;7.43;3.63;;;21.30;99.90;;;;;;5030219;28;20029;-65
2021/07/16 07:54:39;;;;;;;5.00;2.38;;;21.40;99.90;;;;;;5031026;28;20025;-66
2021/07/16 07:57:05;;;;;;;5.40;3.65;;;21.50;99.90;;;;;;5030015;28;20025;-77
2021/07/16 07:59:32;;;;;;;8.48;5.30;;;21.70;99.90;;;;;;5012528;28;20165;-66
2021/07/16 08:01:57;;;;;;;6.05;3.65;;;21.60;99.90;;;;;;5012058;28;20036;-65
2021/07/16 08:04:23;;;;;;;10.18;5.00;;;21.70;99.90;;;;;;5029626;28;20459;-66
2021/07/16 08:06:49;;;;;;;7.15;3.47;;;21.70;99.90;;;;;;5030521;28;20034;-65
2021/07/16 08:09:15;;;;;;;10.13;7.40;;;21.80;99.90;;;;;;5030205;28;20036;-65
2021/07/16 08:11:42;;;;;;;5.72;3.72;;;21.80;99.90;;;;;;5040707;28;20366;-64
2021/07/16 08:14:08;;;;;;;7.43;3.95;;;21.90;99.90;;;;;;5016190;28;20025;-67
2021/07/16 08:16:34;;;;;;;6.80;4.63;;;22.00;99.90;;;;;;5034113;28;20144;-53
2021/07/16 08:18:59;;;;;;;5.85;2.83;;;22.10;99.90;;;;;;5016002;28;20489;-52
2021/07/16 08:21:25;;;;;;;12.18;7.70;;;22.40;99.90;;;;;;5015474;28;20032;-52
2021/07/16 08:23:51;;;;;;;5.32;4.20;;;22.80;99.90;;;;;;5016087;28;20520;-52
2021/07/16 08:26:19;;;;;;;12.88;8.35;;;23.20;99.90;;;;;;5033292;28;20155;-51
2021/07/16 08:28:45;;;;;;;11.45;8.30;;;23.40;99.90;;;;;;5034904;28;20092;-51
2021/07/16 08:31:11;;;;;;;12.32;8.07;;;23.50;99.90;;;;;;5034388;28;20111;-54
2021/07/16 08:33:37;;;;;;;9.32;7.47;;;23.60;99.90;;;;;;5053133;28;20032;-50
2021/07/16 08:36:03;;;;;;;10.77;8.52;;;23.50;99.90;;;;;;5053333;28;20033;-52
2021/07/16 08:38:29;;;;;;;13.07;6.30;;;23.40;99.90;;;;;;5035411;28;20106;-53
2021/07/16 08:40:55;;;;;;;9.93;7.97;;;23.40;99.90;;;;;;5035947;28;20025;-52
2021/07/16 08:43:23;;;;;;;10.70;7.45;;;23.90;99.90;;;;;;5035288;28;20036;-51
2021/07/16 08:45:51;;;;;;;13.52;8.50;;;24.10;99.90;;;;;;5052818;28;20048;-51
2021/07/16 08:48:17;;;;;;;13.13;7.15;;;24.20;99.90;;;;;;5052721;28;20060;-52
2021/07/16 08:50:42;;;;;;;10.07;7.35;;;24.70;99.90;;;;;;5035442;28;20138;-52
2021/07/16 08:53:10;;;;;;;12.48;7.95;;;24.80;99.90;;;;;;5035511;28;20032;-51
2021/07/16 08:55:36;;;;;;;11.07;8.55;;;24.70;99.90;;;;;;5053484;28;20063;-52
2021/07/16 08:58:06;;;;;;;9.63;7.47;;;24.50;99.90;;;;;;5035029;28;20021;-52
2021/07/16 09:00:32;;;;;;;13.55;8.23;;;24.50;99.90;;;;;;5034106;28;20029;-52
2021/07/16 09:02:59;;;;;;;10.63;7.88;;;24.60;99.90;;;;;;5052683;28;20021;-51
2021/07/16 09:05:37;;;;;;;11.05;6.93;;;24.60;99.90;;;;;;5034172;28;20086;-54
2021/07/16 09:08:10;;;;;;;8.82;6.68;;;24.60;99.90;;;;;;5033118;28;20116;-54
2021/07/16 09:10:36;;;;;;;8.43;7.60;;;24.60;99.90;;;;;;5051561;28;20033;-54
2021/07/16 09:13:03;;;;;;;10.38;7.65;;;24.30;99.90;;;;;;5032137;28;20086;-59
2021/07/16 09:15:29;;;;;;;10.63;6.68;;;24.20;99.90;;;;;;5044954;28;20017;-54
2021/07/16 09:18:15;;;;;;;6.97;6.07;;;24.00;99.90;;;;;;5032912;28;20545;-56
2021/07/16 09:20:41;;;;;;;16.48;8.63;;;23.70;99.90;;;;;;5031434;28;20035;-54
2021/07/16 09:23:10;;;;;;;10.02;5.88;;;23.60;99.90;;;;;;5031234;28;20112;-60
2021/07/16 09:25:39;;;;;;;24.58;6.95;;;23.60;99.90;;;;;;5032946;28;20033;-54
2021/07/16 09:28:06;;;;;;;8.02;6.93;;;23.50;99.90;;;;;;5032931;28;20026;-52
2021/07/16 09:30:32;;;;;;;10.07;7.28;;;23.50;99.90;;;;;;5031249;28;20029;-52
2021/07/16 09:33:05;;;;;;;9.65;7.15;;;23.60;99.90;;;;;;5042681;28;21027;-54
2021/07/16 09:35:39;;;;;;;10.85;6.68;;;23.90;99.90;;;;;;5028369;28;20146;-52
2021/07/16 09:38:05;;;;;;;11.88;6.50;;;24.00;99.90;;;;;;5025629;28;20485;-53
2021/07/16 09:40:38;;;;;;;11.60;7.47;;;24.30;99.90;;;;;;5021449;28;20029;-52
2021/07/16 09:43:15;;;;;;;11.20;6.82;;;24.80;99.90;;;;;;5036057;28;20036;-57
2021/07/16 09:46:01;;;;;;;7.55;6.75;;;25.00;99.90;;;;;;5037247;28;20479;-52
2021/07/16 09:48:36;;;;;;;11.70;7.53;;;25.00;99.90;;;;;;5011595;28;20091;-52
2021/07/16 09:51:12;;;;;;;9.77;7.28;;;25.10;99.90;;;;;;5018174;28;20048;-53
2021/07/16 09:53:50;;;;;;;12.15;7.65;;;25.00;99.90;;;;;;5019452;28;20317;-56
2021/07/16 09:56:20;;;;;;;11.25;6.57;;;25.20;99.90;;;;;;5004843;28;20030;-55
2021/07/16 09:58:48;;;;;;;8.70;6.50;;;25.50;99.90;;;;;;4986049;28;20060;-53
2021/07/16 10:01:13;;;;;;;13.77;6.25;;;25.70;99.90;;;;;;4971966;28;20079;-67
2021/07/16 10:03:40;;;;;;;8.77;6.43;;;25.90;99.90;;;;;;4972188;28;20163;-53
2021/07/16 10:06:12;;;;;;;9.88;6.00;;;25.80;99.90;;;;;;4988301;28;20092;-52
2021/07/16 10:08:39;;;;;;;11.63;6.85;;;25.80;99.90;;;;;;4971914;28;20046;-55
2021/07/16 10:11:06;;;;;;;11.80;7.15;;;25.80;99.90;;;;;;4972221;28;20125;-53
2021/07/16 10:13:36;;;;;;;10.63;6.65;;;26.10;99.90;;;;;;4987756;28;20047;-59
2021/07/16 10:16:04;;;;;;;7.95;6.70;;;26.40;99.90;;;;;;4987249;28;20429;-68
2021/07/16 10:18:30;;;;;;;6.32;5.72;;;26.20;99.90;;;;;;4970669;28;20125;-66
2021/07/16 10:20:57;;;;;;;6.50;5.85;;;26.10;99.90;;;;;;4987562;28;20139;-66
2021/07/16 10:23:24;;;;;;;7.20;5.53;;;26.00;99.90;;;;;;4970605;28;20464;-67
2021/07/16 10:25:50;;;;;;;7.63;6.00;;;25.90;99.90;;;;;;4988244;28;20067;-67
2021/07/16 10:28:41;;;;;;;6.63;5.63;;;26.00;99.90;;;;;;4986664;28;20034;-65
2021/07/16 10:31:39;;;;;;;9.68;6.50;;;26.20;99.90;;;;;;5014517;28;20128;-68
2021/07/16 10:34:19;;;;;;;8.02;6.95;;;26.20;99.90;;;;;;5029890;28;20530;-66
2021/07/16 10:36:49;;;;;;;8.05;6.15;;;26.10;99.90;;;;;;5029912;28;20087;-67
2021/07/16 10:39:41;;;;;;;6.13;5.53;;;25.90;99.90;;;;;;5028963;28;20522;-69
2021/07/16 10:42:25;;;;;;;7.80;6.22;;;25.70;99.90;;;;;;5024852;28;20041;-67
2021/07/16 10:44:52;;;;;;;6.00;5.50;;;25.50;99.90;;;;;;5031098;28;20026;-68
2021/07/16 10:47:37;;;;;;;6.90;5.63;;;25.50;99.90;;;;;;5048044;28;20037;-66
2021/07/16 10:50:06;;;;;;;8.75;6.22;;;25.40;99.90;;;;;;5030990;28;20131;-65
2021/07/16 10:52:43;;;;;;;7.18;6.00;;;25.40;99.90;;;;;;5048661;28;20029;-67
2021/07/16 10:55:10;;;;;;;7.07;5.45;;;25.40;99.90;;;;;;5049242;28;20025;-65
2021/07/16 10:57:41;;;;;;;13.27;6.35;;;25.20;99.90;;;;;;5030731;28;20136;-68
2021/07/16 11:00:10;;;;;;;9.23;6.85;;;25.00;99.90;;;;;;5030882;28;20501;-65
2021/07/16 11:02:38;;;;;;;7.15;6.45;;;25.10;99.90;;;;;;5044345;28;20230;-66
2021/07/16 11:05:36;;;;;;;10.10;6.00;;;25.20;99.90;;;;;;5012470;28;20029;-66
2021/07/16 11:08:03;;;;;;;9.02;6.45;;;25.30;99.90;;;;;;4994876;28;20049;-65
2021/07/16 11:10:48;;;;;;;9.25;6.18;;;25.70;99.90;;;;;;5010493;28;20049;-67
2021/07/16 11:13:33;;;;;;;9.73;6.05;;;26.00;99.90;;;;;;5010229;28;20124;-67
2021/07/16 11:16:00;;;;;;;7.30;4.82;;;26.30;99.90;;;;;;5006140;28;20045;-65
2021/07/16 11:18:27;;;;;;;6.90;5.43;;;26.30;99.90;;;;;;5008496;28;20056;-65
2021/07/16 11:20:54;;;;;;;9.40;5.45;;;26.50;99.90;;;;;;4991370;28;20419;-65
2021/07/16 11:23:21;;;;;;;6.97;5.00;;;26.50;99.90;;;;;;5007999;28;20064;-66
2021/07/16 11:25:47;;;;;;;6.85;5.05;;;26.70;99.90;;;;;;5009106;28;20065;-65
2021/07/16 11:28:13;;;;;;;8.38;4.88;;;27.10;99.90;;;;;;4990378;28;20022;-66
2021/07/16 11:30:39;;;;;;;4.70;4.25;;;27.60;99.90;;;;;;4990876;28;20038;-66
2021/07/16 11:33:06;;;;;;;5.13;4.43;;;27.60;99.90;;;;;;5010785;28;20096;-65
2021/07/16 11:35:33;;;;;;;4.68;3.97;;;27.60;99.80;;;;;;4996974;28;20464;-65
2021/07/16 11:38:05;;;;;;;6.90;4.97;;;27.60;99.90;;;;;;5008263;28;20103;-65
2021/07/16 11:40:31;;;;;;;4.13;3.72;;;27.90;99.60;;;;;;5007518;28;20195;-66
2021/07/16 11:42:59;;;;;;;4.95;3.45;;;28.40;99.90;;;;;;5008192;28;20026;-67
2021/07/16 11:45:34;;;;;;;5.47;3.80;;;28.80;99.30;;;;;;5003948;28;20041;-65
2021/07/16 11:48:10;;;;;;;3.47;3.10;;;29.20;98.40;;;;;;5016434;28;20033;-67
2021/07/16 11:50:36;;;;;;;3.90;3.28;;;29.10;97.80;;;;;;5015944;28;20056;-66
2021/07/16 11:53:02;;;;;;;3.35;2.97;;;28.90;97.50;;;;;;5034089;28;20068;-66
2021/07/16 11:55:29;;;;;;;3.65;3.35;;;28.60;98.30;;;;;;5033195;28;20152;-65
2021/07/16 11:58:00;;;;;;;4.22;2.85;;;28.70;98.40;;;;;;5034308;28;20175;-67
2021/07/16 12:00:30;;;;;;;6.28;3.50;;;28.50;98.50;;;;;;5034774;28;20029;-55
2021/07/16 12:03:15;;;;;;;3.45;3.15;;;28.50;98.60;;;;;;5016329;28;20351;-67
2021/07/16 12:05:54;;;;;;;3.50;3.20;;;28.60;98.60;;;;;;5016895;28;20032;-66
2021/07/16 12:08:22;;;;;;;5.10;3.33;;;28.70;98.50;;;;;;5016272;28;20128;-66
2021/07/16 12:10:49;;;;;;;3.35;2.53;;;29.10;98.30;;;;;;5013029;28;20045;-67
2021/07/16 12:13:18;;;;;;;2.67;2.47;;;29.10;98.00;;;;;;5004903;28;20029;-71
2021/07/16 12:15:45;;;;;;;3.35;3.08;;;29.00;98.00;;;;;;5001064;28;20094;-67
2021/07/16 12:18:12;;;;;;;3.72;3.35;;;28.70;97.60;;;;;;5017958;28;20116;-69
2021/07/16 12:20:39;;;;;;;6.15;3.45;;;28.60;98.20;;;;;;4997502;28;20033;-64
2021/07/16 12:23:10;;;;;;;4.43;3.30;;;27.90;98.50;;;;;;4997415;28;20033;-65
2021/07/16 12:25:37;;;;;;;;;;;28.00;99.20;;;;;;5015176;28;20030;-67
2021/07/16 12:28:24;;;;;;;7.30;3.03;;;28.30;98.60;;;;;;5013536;28;19905;-66
2021/07/16 12:31:00;;;;;;;3.97;3.20;;;28.60;98.50;;;;;;5014971;28;20064;-65
2021/07/16 12:33:32;;;;;;;2.60;2.40;;;28.60;99.00;;;;;;5000550;28;20195;-66
2021/07/16 12:35:59;;;;;;;2.85;2.50;;;28.50;98.20;;;;;;5034582;28;20416;-66
2021/07/16 12:38:30;;;;;;;6.65;3.05;;;28.30;98.70;;;;;;5034313;28;20096;-65
2021/07/16 12:41:06;;;;;;;3.78;3.20;;;28.30;98.20;;;;;;5033422;28;20408;-66
2021/07/16 12:43:45;;;;;;;7.93;3.63;;;28.70;98.00;;;;;;5034563;28;20318;-65
2021/07/16 12:46:11;;;;;;;3.55;2.78;;;28.50;97.20;;;;;;5047743;28;20141;-66
2021/07/16 12:48:38;;;;;;;4.95;3.47;;;28.60;97.50;;;;;;5054001;28;20037;-66